Time;durP1;ratioP1;P1;durP2;ratioP2;P2;SDS_P1;SDS_P2;PMS_P1;PMS_P2;Temp;Humidity;BMP_temperature;BMP_pressure;BME280_temperature;BME280_humidity;BME280_pressure;Samples;Min_cycle;Max_cycle;Signal;HPM_P1;HPM_P2
2023/09/22 00:01:39;;;;;;;6.30;5.80;;;;;;;;;;4862280;29;20473;-89
2023/09/22 00:11:12;;;;;;;9.30;6.70;;;19.00;99.90;;;;;;4910771;29;20534;-89
2023/09/22 01:51:55;;;;;;;11.67;7.90;;;18.80;69.30;;;;;;4999666;28;20473;-87
2023/09/22 01:54:22;;;;;;;8.70;7.90;;;18.70;1.00;;;;;;5000251;28;20488;-87
2023/09/22 01:56:48;;;;;;;10.03;7.90;;;18.50;1.00;;;;;;4999465;28;20491;-87
2023/09/22 01:59:16;;;;;;;9.40;8.60;;;;;;;;;;4998886;28;20463;-87
2023/09/22 02:01:42;;;;;;;11.13;8.90;;;18.70;1.00;;;;;;5000702;28;20489;-87
2023/09/22 02:04:09;;;;;;;10.10;9.10;;;19.00;99.90;;;;;;4999939;28;20448;-87
2023/09/22 02:06:36;;;;;;;10.43;9.20;;;18.70;1.00;;;;;;5000981;28;20794;-87
2023/09/22 02:09:04;;;;;;;15.93;9.90;;;18.60;99.90;;;;;;5000843;28;20536;-87
2023/09/22 02:11:31;;;;;;;9.77;8.83;;;18.70;1.00;;;;;;5002820;28;20496;-87
2023/09/22 02:13:59;;;;;;;10.73;9.47;;;18.70;1.00;;;;;;5011421;28;20490;-87
2023/09/22 02:16:27;;;;;;;13.43;9.77;;;18.70;1.00;;;;;;5000955;28;20451;-87
2023/09/22 02:18:53;;;;;;;11.40;8.87;;;18.70;1.00;;;;;;5008414;28;20473;-86
2023/09/22 02:21:20;;;;;;;13.00;10.30;;;18.80;1.00;;;;;;5016412;28;20483;-86
2023/09/22 02:23:47;;;;;;;12.83;10.07;;;18.70;1.00;;;;;;5018113;28;20445;-86
2023/09/22 02:26:15;;;;;;;11.53;10.43;;;18.90;1.00;;;;;;5014125;28;20437;-86
2023/09/22 02:28:42;;;;;;;11.37;9.97;;;18.70;1.00;;;;;;5014314;28;20445;-86
2023/09/22 02:31:09;;;;;;;11.73;10.00;;;19.00;1.00;;;;;;5015805;28;20492;-86
2023/09/22 02:33:36;;;;;;;10.03;9.13;;;18.80;1.00;;;;;;5016151;28;20504;-86
2023/09/22 02:36:05;;;;;;;10.03;9.10;;;18.90;99.90;;;;;;5015357;28;20440;-86
2023/09/22 02:38:32;;;;;;;10.27;9.23;;;18.90;1.00;;;;;;5005510;28;20447;-87
2023/09/22 02:40:59;;;;;;;10.57;9.50;;;18.90;1.00;;;;;;5009535;28;20456;-87
2023/09/22 02:43:27;;;;;;;14.13;9.83;;;19.00;1.00;;;;;;5006726;28;20505;-87
2023/09/22 02:45:54;;;;;;;11.23;8.93;;;19.00;1.00;;;;;;5006690;28;20452;-88
2023/09/22 02:48:21;;;;;;;11.47;8.80;;;19.00;1.00;;;;;;5001345;28;20932;-87
2023/09/22 02:50:48;;;;;;;13.23;9.47;;;;;;;;;;4998782;28;20538;-86
2023/09/22 02:53:15;;;;;;;8.87;8.00;;;19.00;1.00;;;;;;4998335;28;20483;-87
2023/09/22 02:55:46;;;;;;;11.73;9.07;;;19.20;1.00;;;;;;4998900;28;20490;-87
2023/09/22 02:58:14;;;;;;;10.77;8.70;;;;;;;;;;4998998;28;20445;-87
2023/09/22 03:00:44;;;;;;;8.97;8.10;;;19.10;1.00;;;;;;4997947;28;20510;-87
2023/09/22 03:03:12;;;;;;;8.97;8.10;;;19.10;1.00;;;;;;4998170;28;20521;-87
2023/09/22 03:05:39;;;;;;;17.77;9.37;;;19.10;1.00;;;;;;4998142;28;20826;-87
2023/09/22 03:08:06;;;;;;;9.00;7.73;;;19.10;1.00;;;;;;4997808;28;20452;-87
2023/09/22 03:10:34;;;;;;;7.70;6.90;;;;;;;;;;4998597;28;20527;-87
2023/09/22 03:13:01;;;;;;;6.83;6.13;;;19.10;99.90;;;;;;4996907;28;20480;-88
2023/09/22 03:15:29;;;;;;;6.37;5.77;;;;;;;;;;4997576;28;20941;-87
2023/09/22 03:17:57;;;;;;;6.50;5.87;;;19.20;99.90;;;;;;5008057;28;20456;-88
2023/09/22 03:20:25;;;;;;;6.90;5.43;;;19.10;99.90;;;;;;5010837;28;20524;-86
2023/09/22 03:22:52;;;;;;;6.20;5.23;;;19.20;99.90;;;;;;5006002;28;20470;-87
2023/09/22 03:25:19;;;;;;;4.93;4.53;;;19.20;99.90;;;;;;5003456;28;20445;-87
2023/09/22 03:27:46;;;;;;;4.83;4.27;;;19.20;99.90;;;;;;5007085;28;20551;-87
2023/09/22 03:30:13;;;;;;;13.77;4.37;;;19.10;99.90;;;;;;5005548;28;20515;-86
2023/09/22 03:32:40;;;;;;;3.40;3.17;;;19.20;99.90;;;;;;4998591;28;20523;-87
2023/09/22 03:35:09;;;;;;;5.03;3.50;;;19.20;1.00;;;;;;4998302;28;20488;-87
2023/09/22 03:37:36;;;;;;;3.93;2.93;;;19.10;1.00;;;;;;4998150;28;20480;-87
2023/09/22 03:40:13;;;;;;;3.57;2.93;;;19.30;99.90;;;;;;5000121;28;20461;-87
2023/09/22 03:42:40;;;;;;;2.70;2.30;;;19.10;1.00;;;;;;4998671;28;20451;-87
2023/09/22 03:45:08;;;;;;;2.50;2.30;;;19.00;31.90;;;;;;4998547;28;20449;-86
2023/09/22 03:47:36;;;;;;;3.50;2.77;;;18.90;99.90;;;;;;4999781;28;20452;-88
2023/09/22 03:50:05;;;;;;;2.43;1.80;;;18.80;99.90;;;;;;5005290;28;20487;-86
2023/09/22 03:52:33;;;;;;;3.47;2.00;;;18.80;99.90;;;;;;5003965;28;20436;-87
2023/09/22 03:55:00;;;;;;;2.23;2.03;;;17.70;1.00;;;;;;5009502;28;20505;-86
2023/09/22 03:57:27;;;;;;;2.40;1.80;;;18.70;99.90;;;;;;5022155;28;20436;-86
2023/09/22 03:59:54;;;;;;;2.60;2.40;;;18.60;1.00;;;;;;5010888;28;20483;-87
2023/09/22 04:02:21;;;;;;;2.90;2.40;;;18.50;1.00;;;;;;5010036;28;20476;-87
2023/09/22 04:04:48;;;;;;;3.80;3.20;;;18.60;1.00;;;;;;5022434;28;20428;-85
2023/09/22 04:07:15;;;;;;;8.47;5.20;;;18.40;99.90;;;;;;5022772;28;20446;-85
2023/09/22 04:09:44;;;;;;;4.50;3.07;;;18.30;1.00;;;;;;5022276;28;20451;-86
2023/09/22 04:12:11;;;;;;;2.17;2.07;;;;;;;;;;5019832;28;20486;-87
2023/09/22 04:14:38;;;;;;;2.70;1.97;;;18.00;1.00;;;;;;5005773;28;20490;-87
2023/09/22 04:17:07;;;;;;;7.43;1.83;;;;;;;;;;5002869;28;20459;-87
2023/09/22 04:19:36;;;;;;;2.50;1.87;;;17.70;1.00;;;;;;5001521;28;20478;-87
2023/09/22 04:22:16;;;;;;;2.23;1.80;;;17.60;99.90;;;;;;5001758;28;20839;-89
2023/09/22 04:27:43;;;;;;;2.87;2.57;;;17.40;99.90;;;;;;4995801;28;20953;-89
2023/09/22 04:30:15;;;;;;;3.43;2.20;;;17.40;99.90;;;;;;5003111;28;20494;-89
2023/09/22 04:32:54;;;;;;;3.20;1.90;;;;;;;;;;5021083;28;20421;-88
2023/09/22 04:35:43;;;;;;;;;;;;;;;;;;;;;
2023/09/22 04:38:14;;;;;;;2.50;2.30;;;;;;;;;;5021879;28;20435;-89
2023/09/22 04:40:44;;;;;;;5.50;3.20;;;17.20;99.90;;;;;;5021219;28;20463;-88
2023/09/22 04:43:18;;;;;;;3.60;2.73;;;;;;;;;;5021664;28;20461;-89
2023/09/22 04:46:00;;;;;;;4.40;2.40;;;;;;;;;;5018947;28;20480;-90
2023/09/22 04:48:27;;;;;;;4.17;2.77;;;;;;;;;;5020561;28;20444;-89
2023/09/22 04:50:58;;;;;;;2.50;2.30;;;;;;;;;;5015135;28;20470;-88
2023/09/22 04:53:25;;;;;;;4.33;3.93;;;;;;;;;;5005305;28;20452;-89
2023/09/22 04:56:03;;;;;;;3.60;2.83;;;17.20;99.90;;;;;;5003482;28;20522;-88
2023/09/22 04:58:30;;;;;;;3.63;2.87;;;;;;;;;;5002926;28;20515;-90
2023/09/22 05:01:01;;;;;;;4.00;2.60;;;17.10;99.90;;;;;;5008145;28;20500;-88
2023/09/22 05:03:29;;;;;;;8.30;3.40;;;;;;;;;;5003725;28;20500;-88
2023/09/22 05:06:08;;;;;;;3.93;3.10;;;17.20;99.90;;;;;;5002500;28;20937;-88
2023/09/22 05:08:43;;;;;;;6.37;5.30;;;;;;;;;;5018145;28;20417;-89
2023/09/22 05:11:11;;;;;;;3.20;2.93;;;17.20;99.90;;;;;;5020530;28;20455;-88
2023/09/22 05:13:38;;;;;;;2.80;2.60;;;;;;;;;;5021223;28;20468;-87
2023/09/22 05:16:06;;;;;;;4.00;2.93;;;;;;;;;;5017297;28;20487;-90
2023/09/22 05:18:34;;;;;;;4.00;2.80;;;;;;;;;;5003312;28;20456;-89
2023/09/22 05:26:39;;;;;;;4.47;3.20;;;17.10;99.90;;;;;;5019044;26;20470;-88
2023/09/22 05:29:09;;;;;;;3.17;2.73;;;;;;;;;;5020272;28;20424;-89
2023/09/22 05:31:37;;;;;;;4.23;2.80;;;;;;;;;;5020063;28;20494;-88
2023/09/22 05:34:04;;;;;;;3.17;2.97;;;;;;;;;;5020689;28;20460;-88
2023/09/22 05:36:31;;;;;;;5.67;4.60;;;;;;;;;;5009803;28;20482;-89
2023/09/22 05:39:10;;;;;;;4.23;3.90;;;;;;;;;;5008293;28;20449;-89
2023/09/22 05:41:38;;;;;;;5.00;4.20;;;17.20;99.90;;;;;;5005524;28;20495;-89
2023/09/22 05:44:07;;;;;;;4.40;4.00;;;17.10;99.90;;;;;;5002513;28;20480;-89
2023/09/22 05:46:34;;;;;;;5.70;4.90;;;;;;;;;;5004647;28;20445;-88
2023/09/22 05:49:01;;;;;;;3.93;3.63;;;17.50;99.90;;;;;;5005626;28;20461;-88
2023/09/22 05:51:29;;;;;;;8.27;5.83;;;;;;;;;;5005346;28;20561;-87
2023/09/22 05:53:56;;;;;;;4.23;3.57;;;17.20;99.90;;;;;;5008660;28;20442;-87
2023/09/22 05:56:25;;;;;;;6.50;3.87;;;17.20;99.90;;;;;;5003658;28;20486;-88
2023/09/22 05:59:40;;;;;;;5.00;3.10;;;17.20;99.90;;;;;;5001819;28;20504;-88
2023/09/22 06:02:33;;;;;;;3.37;2.90;;;17.20;99.90;;;;;;5005595;28;20461;-88
2023/09/22 06:05:31;;;;;;;4.10;3.70;;;17.20;99.90;;;;;;5003316;28;20437;-88
2023/09/22 06:07:59;;;;;;;9.30;6.30;;;;;;;;;;5010912;28;20448;-89
2023/09/22 06:10:26;;;;;;;4.43;4.03;;;16.90;99.90;;;;;;5005474;28;20836;-89
2023/09/22 06:12:53;;;;;;;3.73;3.43;;;;;;;;;;5004556;28;20472;-87
2023/09/22 06:15:20;;;;;;;4.40;3.43;;;;;;;;;;5016798;28;20497;-89
2023/09/22 06:17:51;;;;;;;11.23;3.80;;;17.20;99.90;;;;;;5019859;28;20487;-88
2023/09/22 06:20:18;;;;;;;3.50;3.30;;;;;;;;;;5016853;28;20470;-87
2023/09/22 06:22:49;;;;;;;4.70;3.93;;;17.20;99.90;;;;;;5017679;28;20458;-88
2023/09/22 06:28:41;;;;;;;5.23;3.20;;;;;;;;;;5017330;28;20393;-88
2023/09/22 06:31:08;;;;;;;3.17;2.87;;;;;;;;;;5018125;28;20491;-89
2023/09/22 06:33:36;;;;;;;6.30;3.60;;;17.30;99.90;;;;;;5016141;28;20447;-90
2023/09/22 06:36:05;;;;;;;3.40;2.83;;;17.30;99.90;;;;;;5017880;28;20516;-89
2023/09/22 06:38:33;;;;;;;3.57;3.10;;;17.40;99.90;;;;;;5008565;28;20437;-89
2023/09/22 06:41:48;;;;;;;4.40;2.90;;;17.20;99.90;;;;;;5002095;28;20473;-88
2023/09/22 06:50:35;;;;;;;3.40;3.07;;;17.10;99.90;;;;;;4952411;28;20937;-90
2023/09/22 06:53:08;;;;;;;12.00;10.80;;;;;;;;;;4958329;29;21074;-89
2023/09/22 06:55:40;;;;;;;14.80;13.50;;;;;;;;;;4985043;28;20576;-89
2023/09/22 07:08:30;;;;;;;5.60;3.03;;;;;;;;;;4942181;29;20516;-90
2023/09/22 07:11:45;;;;;;;;;;;;;;;;;;;;;
2023/09/22 07:14:24;;;;;;;3.23;2.70;;;;;;;;;;5003874;28;20448;-90
2023/09/22 07:16:58;;;;;;;3.63;2.53;;;17.40;99.90;;;;;;5002660;28;20478;-89
2023/09/22 07:19:25;;;;;;;4.63;2.50;;;;;;;;;;5009553;28;20438;-89
2023/09/22 07:21:52;;;;;;;2.77;2.53;;;17.30;99.90;;;;;;5006694;28;20460;-89
2023/09/22 07:24:21;;;;;;;5.50;2.50;;;17.30;99.90;;;;;;5001491;28;20846;-88
2023/09/22 07:26:50;;;;;;;5.23;2.73;;;;;;;;;;5002430;28;20792;-89
2023/09/22 07:34:51;;;;;;;2.97;2.77;;;;;;;;;;5098301;23;20512;-87
2023/09/22 07:41:01;;;;;;;4.43;2.77;;;17.30;99.90;;;;;;5003281;23;20504;-89
2023/09/22 07:44:06;;;;;;;8.40;4.27;;;17.30;99.90;;;;;;4978877;28;20438;-90
2023/09/22 07:50:08;;;;;;;3.10;2.90;;;;;;;;;;4980723;28;20521;-89
2023/09/22 07:52:53;;;;;;;3.43;3.00;;;;;;;;;;4980760;28;20422;-88
2023/09/22 10:38:25;;;;;;;6.47;2.83;;;17.60;99.90;;;;;;5259139;23;20497;-91
2023/09/22 11:07:39;;;;;;;4.07;2.50;;;17.70;99.90;;;;;;4742047;30;20479;-90
2023/09/22 11:23:58;;;;;;;3.23;2.33;;;17.70;99.90;;;;;;4721807;30;20448;-88
2023/09/22 11:27:11;;;;;;;5.90;3.97;;;17.60;99.90;;;;;;4722527;30;20469;-88
2023/09/22 11:39:55;;;;;;;3.23;2.50;;;17.60;99.90;;;;;;5001507;23;20490;-86
2023/09/22 11:42:23;;;;;;;4.23;2.80;;;17.60;99.90;;;;;;5012908;28;20434;-86
2023/09/22 11:44:58;;;;;;;3.33;3.10;;;17.60;99.90;;;;;;5008188;28;20457;-86
2023/09/22 11:47:24;;;;;;;4.80;4.40;;;17.60;99.90;;;;;;5008801;28;20425;-87
2023/09/22 11:49:52;;;;;;;4.13;3.00;;;17.70;99.90;;;;;;5009024;28;20490;-86
2023/09/22 11:52:29;;;;;;;4.43;3.37;;;17.70;99.90;;;;;;5008187;28;20446;-86
2023/09/22 11:54:57;;;;;;;3.90;3.60;;;17.80;99.90;;;;;;5007352;28;20510;-85
2023/09/22 11:57:24;;;;;;;4.50;2.77;;;17.80;99.90;;;;;;5005308;28;20481;-87
2023/09/22 11:59:59;;;;;;;3.90;3.60;;;17.80;99.90;;;;;;5002615;28;20553;-87
2023/09/22 12:02:26;;;;;;;3.23;2.90;;;17.80;99.90;;;;;;5002984;28;20421;-86
2023/09/22 12:04:53;;;;;;;3.00;2.07;;;17.80;99.90;;;;;;5009341;28;20438;-86
2023/09/22 12:07:20;;;;;;;3.97;2.23;;;17.90;99.90;;;;;;5018291;28;20453;-85
2023/09/22 12:09:46;;;;;;;6.03;3.70;;;17.90;99.90;;;;;;5022201;28;20478;-85
2023/09/22 12:12:16;;;;;;;3.07;2.83;;;18.00;99.90;;;;;;5022075;28;20442;-85
2023/09/22 12:14:42;;;;;;;3.77;2.73;;;18.10;99.90;;;;;;5016999;28;20438;-86
2023/09/22 12:17:10;;;;;;;2.83;2.60;;;18.00;99.90;;;;;;5011286;28;20516;-88
2023/09/22 12:19:37;;;;;;;2.60;2.40;;;;;;;;;;5020649;28;20489;-88
2023/09/22 12:22:04;;;;;;;3.60;3.30;;;;;;;;;;5020684;28;20482;-87
2023/09/22 12:24:31;;;;;;;5.77;2.83;;;18.00;99.90;;;;;;5015059;28;20452;-86
2023/09/22 12:26:58;;;;;;;4.60;2.73;;;;;;;;;;5004373;28;20539;-87
2023/09/22 12:29:28;;;;;;;4.17;2.40;;;17.90;99.90;;;;;;5002124;28;20638;-88
2023/09/22 12:31:55;;;;;;;2.83;2.63;;;17.90;99.90;;;;;;5002249;28;20454;-89
2023/09/22 12:34:22;;;;;;;2.83;2.20;;;;;;;;;;5020848;28;20517;-86
2023/09/22 12:36:48;;;;;;;2.97;2.67;;;17.90;99.90;;;;;;5021983;28;20483;-86
2023/09/22 12:39:16;;;;;;;3.00;2.80;;;18.20;99.90;;;;;;5021679;28;20486;-87
2023/09/22 12:41:43;;;;;;;3.40;2.93;;;;;;;;;;5021510;28;20494;-87
2023/09/22 12:44:11;;;;;;;4.77;3.23;;;;;;;;;;5005745;28;21021;-87
2023/09/22 12:46:39;;;;;;;4.53;3.20;;;18.00;99.90;;;;;;5004302;28;20442;-88
2023/09/22 12:49:06;;;;;;;5.00;4.50;;;;;;;;;;5007205;28;20494;-88
2023/09/22 12:51:33;;;;;;;4.47;3.70;;;17.90;99.90;;;;;;5005069;28;20545;-87
2023/09/22 12:53:59;;;;;;;7.90;3.97;;;17.90;99.90;;;;;;5004334;28;20489;-87
2023/09/22 12:56:28;;;;;;;7.50;6.20;;;17.70;99.90;;;;;;5008207;28;20521;-87
2023/09/22 12:58:55;;;;;;;7.90;5.93;;;17.80;99.90;;;;;;5006021;28;20478;-87
2023/09/22 13:01:24;;;;;;;9.33;5.10;;;17.70;99.90;;;;;;5007385;28;20892;-87
2023/09/22 13:03:52;;;;;;;5.30;4.10;;;17.70;99.90;;;;;;5007625;28;20462;-87
2023/09/22 13:06:19;;;;;;;4.33;3.47;;;17.70;99.90;;;;;;5004652;28;20473;-87
2023/09/22 13:08:46;;;;;;;3.27;2.97;;;17.30;99.90;;;;;;5003028;28;20462;-88
2023/09/22 13:11:16;;;;;;;5.83;3.13;;;17.70;99.90;;;;;;5007237;28;20488;-88
2023/09/22 13:13:43;;;;;;;5.37;4.07;;;17.70;99.90;;;;;;5002786;28;20954;-88
2023/09/22 13:16:11;;;;;;;3.93;2.90;;;;;;;;;;5003937;28;20477;-87
2023/09/22 13:18:38;;;;;;;2.83;2.63;;;17.50;99.90;;;;;;5009883;28;20476;-87
2023/09/22 13:21:13;;;;;;;3.00;2.20;;;17.50;99.90;;;;;;5007030;28;20660;-87
2023/09/22 13:23:41;;;;;;;5.10;2.57;;;17.50;99.90;;;;;;5006617;28;20462;-88
2023/09/22 13:26:08;;;;;;;4.33;2.73;;;;;;;;;;5004979;28;20452;-88
2023/09/22 13:28:35;;;;;;;2.87;2.50;;;17.50;99.90;;;;;;5006612;28;20550;-88
2023/09/22 13:31:05;;;;;;;4.47;3.03;;;17.50;99.90;;;;;;5004192;28;20513;-87
2023/09/22 13:33:33;;;;;;;6.20;3.00;;;17.50;99.90;;;;;;5003969;28;20488;-87
2023/09/22 13:35:59;;;;;;;4.50;4.10;;;17.60;99.90;;;;;;5003714;28;20961;-87
2023/09/22 13:38:28;;;;;;;5.27;4.77;;;17.60;99.90;;;;;;5002219;28;20509;-87
2023/09/22 13:40:56;;;;;;;4.47;4.07;;;;;;;;;;5003189;28;20465;-88
2023/09/22 13:43:23;;;;;;;6.70;4.60;;;17.70;99.90;;;;;;5011410;28;20507;-88
2023/09/22 13:45:50;;;;;;;3.10;2.67;;;17.40;99.90;;;;;;5005849;28;20452;-88
2023/09/22 13:48:17;;;;;;;3.33;3.00;;;;;;;;;;5005296;28;20508;-87
2023/09/22 13:50:51;;;;;;;4.00;3.03;;;17.60;99.90;;;;;;5007249;28;20454;-87
2023/09/22 13:53:18;;;;;;;5.70;3.90;;;17.70;99.90;;;;;;5007104;28;20427;-87
2023/09/22 13:55:46;;;;;;;4.53;3.40;;;17.70;99.90;;;;;;5010077;28;20622;-87
2023/09/22 13:58:13;;;;;;;4.03;2.77;;;;;;;;;;5003487;28;20527;-87
2023/09/22 14:00:40;;;;;;;4.40;3.10;;;;;;;;;;5004163;28;20471;-88
2023/09/22 14:03:08;;;;;;;4.50;3.10;;;17.80;99.90;;;;;;5010008;28;20450;-88
2023/09/22 14:05:36;;;;;;;2.73;2.50;;;;;;;;;;5011855;28;20489;-88
2023/09/22 14:08:04;;;;;;;7.13;3.30;;;17.80;99.90;;;;;;5011610;28;20896;-89
2023/09/22 14:10:32;;;;;;;3.30;2.53;;;;;;;;;;5009976;28;20446;-88
2023/09/22 14:13:00;;;;;;;3.73;3.43;;;17.80;99.90;;;;;;5013665;28;20510;-88
2023/09/22 14:15:27;;;;;;;3.47;3.17;;;17.90;99.90;;;;;;5019652;28;20496;-87
2023/09/22 14:17:56;;;;;;;6.30;5.70;;;17.90;99.90;;;;;;5019670;28;20466;-86
2023/09/22 14:20:23;;;;;;;3.00;2.40;;;;;;;;;;5016298;28;20439;-88
2023/09/22 14:22:50;;;;;;;3.50;3.20;;;;;;;;;;5016094;28;20533;-87
2023/09/22 14:25:18;;;;;;;5.50;3.83;;;17.70;1.00;;;;;;5007761;28;20474;-88
2023/09/22 14:27:45;;;;;;;3.80;3.13;;;;;;;;;;5014923;28;20474;-87
2023/09/22 14:30:14;;;;;;;2.93;2.53;;;17.60;1.00;;;;;;5004032;28;20460;-88
2023/09/22 14:32:41;;;;;;;3.43;3.13;;;17.60;1.00;;;;;;5005371;28;20453;-87
2023/09/22 14:35:09;;;;;;;7.00;3.80;;;17.50;99.90;;;;;;5011194;28;20461;-87
2023/09/22 14:37:36;;;;;;;3.13;2.90;;;17.50;1.00;;;;;;5002427;28;20855;-86
2023/09/22 14:40:03;;;;;;;5.70;3.17;;;17.60;1.00;;;;;;5002758;28;20493;-87
2023/09/22 14:42:30;;;;;;;3.83;2.80;;;17.50;1.00;;;;;;5002516;28;20485;-87
2023/09/22 14:44:57;;;;;;;4.63;3.30;;;17.60;99.90;;;;;;5001691;28;20446;-87
2023/09/22 14:47:25;;;;;;;7.67;3.30;;;17.60;99.90;;;;;;5001916;28;20491;-86
2023/09/22 14:49:52;;;;;;;7.63;3.90;;;;;;;;;;5000955;28;20509;-87
2023/09/22 14:52:20;;;;;;;5.07;4.20;;;17.50;99.90;;;;;;5001292;28;20480;-87
2023/09/22 14:54:47;;;;;;;3.70;3.40;;;17.50;99.90;;;;;;5003792;28;20454;-87
2023/09/22 14:57:14;;;;;;;3.37;3.00;;;17.50;99.90;;;;;;5000714;28;20496;-88
2023/09/22 14:59:41;;;;;;;3.47;2.67;;;17.50;99.90;;;;;;4999966;28;21034;-87
2023/09/22 15:02:08;;;;;;;3.53;3.17;;;17.40;99.90;;;;;;5001020;28;20536;-87
2023/09/22 15:04:36;;;;;;;5.23;2.83;;;17.50;99.90;;;;;;5001353;28;20450;-87
2023/09/22 15:07:03;;;;;;;5.20;2.77;;;17.50;99.90;;;;;;4999408;28;20446;-86
2023/09/22 15:09:30;;;;;;;3.10;2.80;;;17.50;99.90;;;;;;4999608;28;21020;-87
2023/09/22 15:11:57;;;;;;;2.90;2.70;;;17.40;99.90;;;;;;5001176;28;20453;-87
2023/09/22 15:14:27;;;;;;;4.23;3.07;;;17.40;99.90;;;;;;4999022;28;20450;-87
2023/09/22 15:16:54;;;;;;;8.80;3.90;;;17.40;99.90;;;;;;5000034;28;20494;-87
2023/09/22 15:19:21;;;;;;;3.50;3.17;;;17.40;99.90;;;;;;5002278;28;20502;-88
2023/09/22 15:21:49;;;;;;;3.37;2.20;;;17.40;99.90;;;;;;5002836;28;20449;-87
2023/09/22 15:24:16;;;;;;;6.37;2.80;;;17.30;99.90;;;;;;5002390;28;20877;-87
2023/09/22 15:26:44;;;;;;;5.40;3.00;;;17.40;99.90;;;;;;5003121;28;20449;-87
2023/09/22 15:29:10;;;;;;;5.33;2.50;;;17.30;99.90;;;;;;5003574;28;20478;-87
2023/09/22 15:31:38;;;;;;;2.90;2.30;;;;;;;;;;5005482;28;20541;-87
2023/09/22 15:34:08;;;;;;;2.67;2.47;;;17.30;1.00;;;;;;5007479;28;20452;-87
2023/09/22 15:36:36;;;;;;;3.57;2.90;;;17.30;99.90;;;;;;5008203;28;20430;-87
2023/09/22 15:39:04;;;;;;;5.00;3.00;;;17.40;99.90;;;;;;5002819;28;20456;-87
2023/09/22 15:41:32;;;;;;;7.53;3.47;;;17.70;1.00;;;;;;5017740;28;20442;-86
2023/09/22 15:43:59;;;;;;;5.27;4.77;;;17.70;1.00;;;;;;5018169;28;20422;-86
2023/09/22 15:46:26;;;;;;;4.73;3.40;;;17.20;1.00;;;;;;5018672;28;20488;-85
2023/09/22 15:48:53;;;;;;;3.70;2.90;;;17.50;1.00;;;;;;5018418;28;20493;-86
2023/09/22 15:51:20;;;;;;;5.47;2.73;;;17.30;99.90;;;;;;5012806;28;20497;-87
2023/09/22 15:53:48;;;;;;;3.80;3.10;;;17.60;1.00;;;;;;5012842;28;20485;-86
2023/09/22 15:56:16;;;;;;;2.70;2.50;;;17.30;1.00;;;;;;5006947;28;20449;-87
2023/09/22 15:58:43;;;;;;;3.33;2.53;;;17.30;99.90;;;;;;5014500;28;20575;-86
2023/09/22 16:01:10;;;;;;;2.43;2.23;;;;;;;;;;5018307;28;20467;-86
2023/09/22 16:03:41;;;;;;;4.90;2.67;;;17.30;99.90;;;;;;5017038;28;20483;-87
2023/09/22 16:06:08;;;;;;;3.80;3.10;;;17.40;1.00;;;;;;5011356;28;20433;-87
2023/09/22 16:08:36;;;;;;;5.30;2.77;;;17.40;1.00;;;;;;5003256;28;21023;-87
2023/09/22 16:11:03;;;;;;;15.03;2.47;;;17.10;1.00;;;;;;5003180;28;20453;-87
2023/09/22 16:13:31;;;;;;;3.07;2.77;;;17.30;1.00;;;;;;5003897;28;20533;-87
2023/09/22 16:16:05;;;;;;;5.47;3.20;;;17.30;1.00;;;;;;5002320;28;20488;-89
2023/09/22 16:18:33;;;;;;;3.70;3.40;;;;;;;;;;5006128;28;20488;-89
2023/09/22 16:24:27;;;;;;;4.00;2.70;;;;;;;;;;4923871;29;20461;-89
2023/09/22 16:38:34;;;;;;;7.77;2.97;;;17.20;19.30;;;;;;4843576;29;20591;-88
2023/09/22 16:41:02;;;;;;;4.80;4.33;;;;;;;;;;4920234;29;20460;-88
2023/09/22 16:43:30;;;;;;;4.77;4.33;;;;;;;;;;4919030;29;20617;-88
2023/09/22 16:45:58;;;;;;;3.53;3.13;;;;;;;;;;4940492;28;20520;-88
2023/09/22 16:48:25;;;;;;;7.73;3.00;;;17.20;99.90;;;;;;5038833;23;20494;-87
2023/09/22 16:50:53;;;;;;;3.50;3.10;;;17.10;99.90;;;;;;5017370;28;20426;-89
2023/09/22 16:53:20;;;;;;;3.20;2.90;;;17.10;99.90;;;;;;5017715;28;20422;-87
2023/09/22 16:55:48;;;;;;;3.20;2.83;;;17.00;99.90;;;;;;5012571;28;20557;-88
2023/09/22 16:58:15;;;;;;;3.47;2.87;;;16.80;99.90;;;;;;5021154;28;20507;-88
2023/09/22 17:00:42;;;;;;;4.17;3.83;;;17.00;99.90;;;;;;5020482;28;20459;-87
2023/09/22 17:03:09;;;;;;;4.13;3.83;;;16.90;99.90;;;;;;5020967;28;20500;-88
2023/09/22 17:05:36;;;;;;;4.67;3.03;;;17.10;99.90;;;;;;5013824;28;20479;-90
2023/09/22 17:08:05;;;;;;;3.83;3.13;;;17.10;99.90;;;;;;5019354;28;20481;-89
2023/09/22 17:10:35;;;;;;;5.23;4.67;;;16.90;99.90;;;;;;5007504;28;20459;-89
2023/09/22 17:13:03;;;;;;;5.53;4.40;;;16.90;99.90;;;;;;5006071;28;20516;-89
2023/09/22 17:15:32;;;;;;;6.60;4.43;;;16.70;99.90;;;;;;5006524;28;20540;-89
2023/09/22 17:17:59;;;;;;;2.90;2.70;;;17.20;99.90;;;;;;5006943;28;20484;-89
2023/09/22 17:20:25;;;;;;;5.73;3.67;;;16.90;99.90;;;;;;5005443;28;20835;-89
2023/09/22 17:22:52;;;;;;;10.17;3.80;;;16.90;99.90;;;;;;5006895;28;20487;-88
2023/09/22 17:25:19;;;;;;;6.00;3.90;;;16.80;99.90;;;;;;5004505;28;20453;-87
2023/09/22 17:27:46;;;;;;;5.13;4.30;;;16.80;99.90;;;;;;5006125;28;20968;-89
2023/09/22 17:30:15;;;;;;;5.50;4.43;;;16.70;99.90;;;;;;5017202;28;20464;-87
2023/09/22 17:32:42;;;;;;;5.00;4.50;;;16.70;99.90;;;;;;5015360;28;20460;-88
2023/09/22 17:35:10;;;;;;;6.10;5.30;;;16.70;99.90;;;;;;5006335;28;20507;-88
2023/09/22 17:37:37;;;;;;;8.17;5.00;;;16.70;99.90;;;;;;5005911;28;20518;-89
2023/09/22 17:40:05;;;;;;;4.53;4.03;;;16.70;99.90;;;;;;5004046;28;20472;-89
2023/09/22 17:42:32;;;;;;;5.03;4.60;;;16.70;99.90;;;;;;5003723;28;20452;-88
2023/09/22 17:44:59;;;;;;;6.10;5.47;;;16.70;99.90;;;;;;5002381;28;20540;-89
2023/09/22 17:47:27;;;;;;;4.20;3.80;;;16.50;99.90;;;;;;5007476;28;20440;-88
2023/09/22 17:49:54;;;;;;;8.27;4.67;;;16.40;99.90;;;;;;5015668;28;20535;-88
2023/09/22 17:52:23;;;;;;;7.03;5.17;;;16.70;99.90;;;;;;5012244;28;20452;-88
2023/09/22 17:54:51;;;;;;;3.93;3.60;;;;;;;;;;5007956;28;20488;-87
2023/09/22 17:57:20;;;;;;;6.23;4.40;;;16.50;99.90;;;;;;5004112;28;21027;-83
2023/09/22 17:59:48;;;;;;;5.23;4.10;;;;;;;;;;5002155;28;20502;-82
2023/09/22 18:02:18;;;;;;;9.20;6.87;;;;;;;;;;5002438;28;20802;-83
2023/09/22 18:04:46;;;;;;;9.13;5.70;;;16.60;99.90;;;;;;5003212;28;20440;-83
2023/09/22 18:07:13;;;;;;;4.73;4.00;;;16.70;99.90;;;;;;5002243;28;20440;-83
2023/09/22 18:09:40;;;;;;;4.30;3.90;;;16.70;99.90;;;;;;5002492;28;20488;-84
2023/09/22 18:12:07;;;;;;;5.00;4.53;;;16.60;99.90;;;;;;5001897;28;20544;-84
2023/09/22 18:14:34;;;;;;;11.30;7.27;;;16.50;99.90;;;;;;5001516;28;20506;-84
2023/09/22 18:17:02;;;;;;;6.87;5.00;;;16.60;99.90;;;;;;5003644;28;20453;-83
2023/09/22 18:19:29;;;;;;;7.97;6.50;;;16.60;99.90;;;;;;5000905;28;20484;-83
2023/09/22 18:21:57;;;;;;;8.20;6.10;;;16.60;99.90;;;;;;5003121;28;20444;-84
2023/09/22 18:24:25;;;;;;;7.13;4.50;;;16.90;99.90;;;;;;5002144;28;20959;-84
2023/09/22 18:26:51;;;;;;;6.00;5.10;;;16.60;99.90;;;;;;5002016;28;20888;-84
2023/09/22 18:29:18;;;;;;;4.67;4.13;;;16.50;99.90;;;;;;5017927;28;20544;-81
2023/09/22 18:31:45;;;;;;;10.10;4.93;;;16.50;99.90;;;;;;5010318;28;20536;-84
2023/09/22 18:34:12;;;;;;;5.53;4.40;;;16.50;99.90;;;;;;5004918;28;20499;-83
2023/09/22 18:36:39;;;;;;;6.40;4.40;;;16.50;99.90;;;;;;5005208;28;20516;-89
2023/09/22 18:39:08;;;;;;;8.27;6.40;;;16.70;99.90;;;;;;5001957;28;20495;-88
2023/09/22 18:41:35;;;;;;;5.57;4.90;;;16.90;99.90;;;;;;5000679;28;20452;-88
2023/09/22 18:44:02;;;;;;;5.37;4.17;;;16.50;99.90;;;;;;5005784;28;20451;-88
2023/09/22 18:46:29;;;;;;;6.37;5.27;;;16.50;99.90;;;;;;5006207;28;20462;-88
2023/09/22 18:48:56;;;;;;;11.70;4.90;;;16.50;99.90;;;;;;5017831;28;20503;-87
2023/09/22 18:51:24;;;;;;;4.27;3.87;;;16.50;99.90;;;;;;5014099;28;20468;-88
2023/09/22 18:53:51;;;;;;;5.30;4.40;;;16.50;99.90;;;;;;4999038;28;20457;-88
2023/09/22 18:56:19;;;;;;;4.27;3.97;;;16.30;99.90;;;;;;4998940;28;20543;-88
2023/09/22 18:58:46;;;;;;;6.00;5.20;;;16.40;99.90;;;;;;4998296;28;20457;-88
2023/09/22 19:01:13;;;;;;;9.73;5.50;;;16.30;99.90;;;;;;4999861;28;20471;-88
2023/09/22 19:03:40;;;;;;;5.53;4.80;;;16.40;99.90;;;;;;5000279;28;20531;-89
2023/09/22 19:06:10;;;;;;;5.60;5.10;;;16.30;99.90;;;;;;5002261;28;20508;-89
2023/09/22 19:08:37;;;;;;;7.10;6.40;;;16.30;99.90;;;;;;5000652;28;20841;-89
2023/09/22 19:11:04;;;;;;;5.93;5.40;;;15.80;99.90;;;;;;5001253;28;20448;-88
2023/09/22 19:13:32;;;;;;;7.17;5.53;;;16.30;99.90;;;;;;5006230;28;20449;-88
2023/09/22 19:16:03;;;;;;;19.50;6.83;;;16.20;99.90;;;;;;4999017;28;20832;-87
2023/09/22 19:18:30;;;;;;;6.23;5.67;;;16.30;99.90;;;;;;4999013;28;20479;-88
2023/09/22 19:21:00;;;;;;;10.90;6.07;;;16.10;99.90;;;;;;5000232;28;20524;-87
2023/09/22 19:23:27;;;;;;;6.30;5.80;;;16.50;99.90;;;;;;5000723;28;20456;-88
2023/09/22 19:25:54;;;;;;;6.93;6.23;;;16.20;99.90;;;;;;5000263;28;20448;-87
2023/09/22 19:28:21;;;;;;;10.17;9.00;;;16.20;99.90;;;;;;4998726;28;20495;-88
2023/09/22 19:30:49;;;;;;;8.83;6.20;;;16.20;99.90;;;;;;4998367;28;20543;-88
2023/09/22 19:33:18;;;;;;;6.40;5.80;;;16.20;99.90;;;;;;5014463;28;20444;-87
2023/09/22 19:35:45;;;;;;;6.40;5.87;;;16.10;99.90;;;;;;5016377;28;20456;-87
2023/09/22 19:38:13;;;;;;;6.83;6.33;;;16.10;99.90;;;;;;5003739;28;20495;-88